Time;durP1;ratioP1;P1;durP2;ratioP2;P2;SDS_P1;SDS_P2;PMS_P1;PMS_P2;Temp;Humidity;BMP_temperature;BMP_pressure;BME280_temperature;BME280_humidity;BME280_pressure;Samples;Min_cycle;Max_cycle;Signal;HPM_P1;HPM_P2
2022/05/03 00:00:16;;;;;;;5.28;3.67;;;;;;;12.92;56.86;98413.00;5073084;28;20444;-49
2022/05/03 00:02:47;;;;;;;5.70;4.28;;;;;;;12.85;57.27;98409.63;5071712;28;20029;-50
2022/05/03 00:05:46;;;;;;;8.32;3.95;;;;;;;12.81;57.94;98408.47;5072987;28;20031;-49
2022/05/03 00:08:23;;;;;;;7.30;4.85;;;;;;;12.82;57.81;98404.81;5072942;28;20039;-49
2022/05/03 00:11:21;;;;;;;6.18;3.90;;;;;;;12.90;58.06;98409.78;5072873;28;20082;-50
2022/05/03 00:14:00;;;;;;;5.63;4.00;;;;;;;12.92;57.66;98403.28;5072642;28;20037;-49
2022/05/03 00:16:26;;;;;;;5.38;4.80;;;;;;;12.89;57.33;98408.97;5072736;28;20390;-49
2022/05/03 00:18:53;;;;;;;4.35;3.70;;;;;;;12.84;57.71;98400.94;5072657;28;20218;-49
2022/05/03 00:21:20;;;;;;;4.97;3.83;;;;;;;12.83;57.79;98407.22;5072634;28;20062;-49
2022/05/03 00:23:46;;;;;;;5.22;4.45;;;;;;;12.81;57.58;98401.38;5072587;28;20031;-50
2022/05/03 00:26:12;;;;;;;5.95;4.40;;;;;;;12.78;57.71;98401.81;5071174;28;20021;-50
2022/05/03 00:28:38;;;;;;;5.53;4.05;;;;;;;12.75;58.45;98394.34;5072510;28;20074;-50
2022/05/03 00:31:06;;;;;;;5.22;4.43;;;;;;;12.71;58.10;98391.34;5071578;28;20052;-48
2022/05/03 00:33:33;;;;;;;5.78;4.35;;;;;;;12.65;58.52;98397.50;5072392;28;20024;-49
2022/05/03 00:35:59;;;;;;;5.25;4.28;;;;;;;12.63;58.64;98401.41;5072275;28;20081;-50
2022/05/03 00:38:25;;;;;;;5.53;3.83;;;;;;;12.60;58.68;98400.00;5072292;28;20051;-49
2022/05/03 00:41:02;;;;;;;6.68;4.43;;;;;;;12.58;58.95;98396.78;5070967;28;20066;-50
2022/05/03 00:43:43;;;;;;;9.25;4.55;;;;;;;12.57;59.04;98395.97;5072270;28;20021;-50
2022/05/03 00:46:30;;;;;;;6.55;4.72;;;;;;;12.57;58.68;98393.34;5072238;28;20505;-49
2022/05/03 00:49:14;;;;;;;5.75;4.15;;;;;;;12.61;58.68;98398.97;5072229;28;20432;-50
2022/05/03 00:51:54;;;;;;;5.85;4.75;;;;;;;12.65;58.50;98394.06;5072219;28;20025;-50
2022/05/03 00:54:38;;;;;;;6.95;4.40;;;;;;;12.63;58.49;98398.75;5071995;28;20028;-49
2022/05/03 00:57:31;;;;;;;5.38;4.60;;;;;;;12.57;58.93;98393.34;5072050;28;20036;-49
2022/05/03 01:00:08;;;;;;;5.50;4.60;;;;;;;12.56;58.60;98390.94;5072060;28;20028;-50
2022/05/03 01:03:09;;;;;;;9.52;4.50;;;;;;;12.56;59.07;98383.84;5071926;28;20024;-50
2022/05/03 01:05:46;;;;;;;9.60;4.90;;;;;;;12.61;58.74;98391.06;5071962;28;20031;-50
2022/05/03 01:08:23;;;;;;;5.18;4.57;;;;;;;12.62;58.61;98399.81;5071981;28;20387;-48
2022/05/03 01:11:10;;;;;;;6.25;4.35;;;;;;;12.59;58.92;98388.66;5071901;28;20024;-49
2022/05/03 01:13:58;;;;;;;5.25;4.75;;;;;;;12.56;58.91;98394.38;5071898;28;20040;-49
2022/05/03 01:16:26;;;;;;;6.05;4.75;;;;;;;12.51;58.98;98390.78;5070472;28;20077;-50
2022/05/03 01:19:29;;;;;;;7.72;5.57;;;;;;;12.45;59.23;98397.72;5070429;28;20028;-50
2022/05/03 01:22:09;;;;;;;9.25;4.57;;;;;;;12.41;59.47;98399.19;5070777;28;20101;-50
2022/05/03 01:25:19;;;;;;;6.05;4.95;;;;;;;12.38;59.48;98395.19;5070429;28;20032;-48
2022/05/03 01:27:57;;;;;;;6.97;4.85;;;;;;;12.41;59.16;98398.41;5070636;28;20036;-50
2022/05/03 01:30:25;;;;;;;6.45;5.85;;;;;;;12.41;59.19;98396.56;5070166;28;20052;-50
2022/05/03 01:32:54;;;;;;;6.90;4.70;;;;;;;12.45;59.49;98395.09;5071631;28;20086;-50
2022/05/03 01:35:22;;;;;;;7.35;5.03;;;;;;;12.46;59.38;98393.28;5071501;28;20086;-49
2022/05/03 01:38:06;;;;;;;7.15;4.53;;;;;;;12.42;59.80;98390.28;5071584;28;20024;-50
2022/05/03 01:40:59;;;;;;;9.15;5.15;;;;;;;12.42;59.44;98397.38;5070343;28;20450;-50
2022/05/03 01:43:56;;;;;;;5.65;5.00;;;;;;;12.42;59.36;98400.81;5074854;28;20035;-50
2022/05/03 01:46:24;;;;;;;7.63;4.28;;;;;;;12.43;59.62;98402.41;5074376;28;20408;-49
2022/05/03 01:52:03;;;;;;;6.45;5.13;;;;;;;12.46;59.42;98395.94;5075811;28;20032;-50
2022/05/03 01:54:50;;;;;;;5.72;4.78;;;;;;;12.39;59.50;98396.81;5075518;28;20024;-49
2022/05/03 01:57:39;;;;;;;9.10;4.90;;;;;;;12.38;59.68;98402.28;5075413;28;20052;-49
2022/05/03 02:00:08;;;;;;;5.55;4.30;;;;;;;12.37;59.50;98404.13;5074032;28;20402;-49
2022/05/03 02:03:02;;;;;;;8.25;4.72;;;;;;;12.42;59.75;98411.34;5075293;28;20021;-49
2022/05/03 02:05:58;;;;;;;7.10;5.50;;;;;;;12.45;59.88;98404.81;5074641;28;20036;-50
2022/05/03 02:08:25;;;;;;;7.00;4.93;;;;;;;12.52;59.40;98414.25;5075277;28;20024;-49
2022/05/03 02:10:56;;;;;;;7.95;4.90;;;;;;;12.53;59.63;98415.06;5075077;28;20055;-50
2022/05/03 02:16:37;;;;;;;5.40;4.90;;;;;;;12.64;59.41;98418.81;5075076;28;20035;-50
2022/05/03 02:19:30;;;;;;;6.50;5.20;;;;;;;12.58;59.20;98415.22;5074987;28;20109;-49
2022/05/03 02:22:33;;;;;;;6.85;4.47;;;;;;;12.55;59.28;98408.53;5073612;28;20025;-50
2022/05/03 02:25:12;;;;;;;8.07;5.50;;;;;;;12.49;59.82;98416.53;5073602;28;20495;-49
2022/05/03 02:27:47;;;;;;;5.32;4.60;;;;;;;12.44;59.87;98411.94;5073576;28;20036;-50
2022/05/03 02:30:16;;;;;;;8.02;5.18;;;;;;;12.45;59.76;98416.16;5074576;28;20536;-49
2022/05/03 02:32:57;;;;;;;5.80;4.70;;;;;;;12.46;59.91;98414.34;5073420;28;20037;-50
2022/05/03 02:35:27;;;;;;;8.50;5.18;;;;;;;12.46;59.48;98409.09;5074635;28;20024;-49
2022/05/03 02:37:57;;;;;;;8.98;5.28;;;;;;;12.46;59.69;98416.97;5074652;28;20029;-48
2022/05/03 02:40:30;;;;;;;5.78;5.03;;;;;;;12.50;59.46;98415.53;5073341;28;20021;-49
2022/05/03 02:42:57;;;;;;;9.23;5.38;;;;;;;12.49;59.44;98414.69;5073254;28;20175;-50
2022/05/03 02:45:23;;;;;;;7.05;5.22;;;;;;;12.50;59.37;98413.69;5073225;28;20116;-50
2022/05/03 02:47:58;;;;;;;6.07;5.05;;;;;;;12.50;59.43;98418.16;5074432;28;20024;-50
2022/05/03 02:50:40;;;;;;;5.95;4.90;;;;;;;12.45;59.42;98423.25;5073496;28;20028;-50
2022/05/03 02:53:16;;;;;;;6.75;5.07;;;;;;;12.41;60.04;98417.63;5073824;28;20025;-50
2022/05/03 02:55:54;;;;;;;6.32;5.45;;;;;;;12.36;59.91;98414.84;5073011;28;20030;-49
2022/05/03 02:58:31;;;;;;;5.60;5.07;;;;;;;12.24;60.36;98417.41;5074317;28;20561;-49
2022/05/03 03:04:05;;;;;;;8.05;5.00;;;;;;;12.14;60.76;98419.72;5074275;28;20059;-50
2022/05/03 03:06:37;;;;;;;9.95;5.57;;;;;;;12.11;60.80;98413.06;5074208;28;20077;-50
2022/05/03 03:09:03;;;;;;;6.15;5.55;;;;;;;12.10;60.68;98414.09;5072851;28;20031;-50
2022/05/03 03:11:47;;;;;;;10.70;7.28;;;;;;;12.07;60.80;98411.88;5074088;28;20099;-49
2022/05/03 03:14:34;;;;;;;7.22;5.90;;;;;;;11.95;61.53;98409.16;5074080;28;20032;-50
2022/05/03 03:17:09;;;;;;;7.95;5.60;;;;;;;11.92;61.52;98411.41;5072702;28;20024;-49
2022/05/03 03:19:43;;;;;;;7.57;6.17;;;;;;;11.94;61.78;98412.00;5074034;28;20064;-50
2022/05/03 03:22:14;;;;;;;11.70;5.60;;;;;;;11.93;61.58;98415.63;5072591;28;20074;-48
2022/05/03 03:24:41;;;;;;;5.95;5.35;;;;;;;11.91;61.70;98409.78;5072467;28;20064;-50
2022/05/03 03:27:09;;;;;;;6.95;5.63;;;;;;;11.92;61.77;98408.78;5072426;28;20052;-50
2022/05/03 03:29:38;;;;;;;6.07;5.47;;;;;;;11.90;62.03;98416.09;5072128;28;20409;-49
2022/05/03 03:32:06;;;;;;;5.95;5.35;;;;;;;11.87;61.77;98413.84;5072343;28;20039;-49
2022/05/03 03:34:32;;;;;;;6.53;5.93;;;;;;;11.84;62.23;98412.47;5072242;28;20028;-49
2022/05/03 03:37:01;;;;;;;7.22;6.00;;;;;;;11.87;62.25;98406.78;5072238;28;20098;-50
2022/05/03 03:39:31;;;;;;;6.75;6.05;;;;;;;11.91;62.17;98410.63;5072218;28;20028;-50
2022/05/03 03:42:06;;;;;;;8.00;5.20;;;;;;;11.95;62.06;98410.97;5073457;28;20111;-49
2022/05/03 03:44:32;;;;;;;;;;;;;;;11.93;62.15;98415.63;5073848;28;20123;-49
2022/05/03 03:46:59;;;;;;;;;;;;;;;11.91;61.77;98415.06;5072484;28;19924;-49
2022/05/03 03:49:24;;;;;;;12.02;6.18;;;;;;;11.88;61.60;98415.47;5073402;28;20298;-50
2022/05/03 03:51:51;;;;;;;11.02;5.43;;;;;;;11.87;61.83;98413.84;5071892;28;20035;-49
2022/05/03 03:54:19;;;;;;;7.78;5.75;;;;;;;11.84;62.34;98411.66;5073139;28;20383;-49
2022/05/03 03:56:45;;;;;;;7.10;6.18;;;;;;;11.79;62.41;98415.75;5073127;28;20024;-49
2022/05/03 03:59:14;;;;;;;9.35;6.47;;;;;;;11.75;62.63;98411.09;5073433;28;20425;-49
2022/05/03 04:01:40;;;;;;;9.85;5.35;;;;;;;11.72;62.62;98406.28;5071729;28;20024;-49
2022/05/03 04:04:08;;;;;;;8.07;5.88;;;;;;;11.65;62.96;98408.16;5072527;28;20027;-48
2022/05/03 04:06:35;;;;;;;8.07;5.47;;;;;;;11.58;63.40;98408.22;5071170;28;20029;-50
2022/05/03 04:09:01;;;;;;;10.10;6.13;;;;;;;11.55;63.50;98414.72;5071602;28;20016;-50
2022/05/03 04:11:27;;;;;;;6.70;5.82;;;;;;;11.52;63.56;98417.75;5072858;28;20458;-49
2022/05/03 04:13:53;;;;;;;7.88;6.18;;;;;;;11.48;63.33;98416.56;5071482;28;20048;-49
2022/05/03 04:16:19;;;;;;;6.25;5.35;;;;;;;11.42;63.79;98417.41;5072660;28;20048;-49
2022/05/03 04:18:45;;;;;;;8.63;6.03;;;;;;;11.42;63.66;98427.91;5072713;28;20486;-49
2022/05/03 04:21:18;;;;;;;8.20;5.80;;;;;;;11.44;64.19;98422.47;5072624;28;20020;-49
2022/05/03 04:23:45;;;;;;;9.73;5.85;;;;;;;11.43;63.92;98421.66;5071323;28;20565;-50
2022/05/03 04:26:14;;;;;;;8.20;5.90;;;;;;;11.43;64.00;98424.28;5072527;28;20444;-51
2022/05/03 04:28:40;;;;;;;10.43;6.30;;;;;;;11.45;63.86;98426.69;5071204;28;20445;-50
2022/05/03 04:31:07;;;;;;;5.97;5.38;;;;;;;11.48;63.83;98426.28;5070952;28;20037;-49
2022/05/03 04:33:32;;;;;;;8.48;5.63;;;;;;;11.51;63.74;98428.47;5071185;28;20031;-49
2022/05/03 04:35:58;;;;;;;11.07;6.07;;;;;;;11.54;63.52;98428.06;5070968;28;20028;-50
2022/05/03 04:38:25;;;;;;;11.65;6.82;;;;;;;11.56;63.66;98426.00;5072359;28;20391;-49
2022/05/03 04:40:58;;;;;;;7.38;5.63;;;;;;;11.58;64.06;98429.22;5072287;28;20357;-50
2022/05/03 04:43:23;;;;;;;6.93;5.88;;;;;;;11.60;63.76;98442.97;5072293;28;20025;-49
2022/05/03 04:45:51;;;;;;;7.45;6.05;;;;;;;11.62;63.92;98435.69;5072158;28;20028;-48
2022/05/03 04:48:16;;;;;;;7.40;6.00;;;;;;;11.69;63.62;98446.13;5072199;28;20047;-49
2022/05/03 04:50:42;;;;;;;9.40;6.20;;;;;;;11.75;63.51;98440.03;5072086;28;20486;-50
2022/05/03 04:53:08;;;;;;;6.85;6.10;;;;;;;11.80;63.68;98448.09;5070792;28;20056;-49
2022/05/03 04:55:40;;;;;;;16.65;6.28;;;;;;;11.85;63.39;98450.06;5070655;28;20025;-49
2022/05/03 04:58:07;;;;;;;11.20;6.38;;;;;;;11.87;63.24;98454.13;5070778;28;20040;-48
2022/05/03 05:00:33;;;;;;;10.50;6.63;;;;;;;11.87;63.18;98445.41;5071991;28;20016;-50
2022/05/03 05:02:59;;;;;;;13.23;6.18;;;;;;;11.86;63.36;98451.69;5071959;28;20028;-50
2022/05/03 05:05:25;;;;;;;9.35;5.97;;;;;;;11.87;63.43;98453.28;5071895;28;20028;-49
2022/05/03 05:07:51;;;;;;;9.45;6.22;;;;;;;11.90;63.39;98452.91;5071949;28;20558;-50
2022/05/03 05:10:30;;;;;;;9.32;6.03;;;;;;;11.96;62.92;98444.16;5071894;28;20498;-50
2022/05/03 05:12:56;;;;;;;7.78;5.45;;;;;;;12.08;62.71;98455.56;5071891;28;20040;-49
2022/05/03 05:15:26;;;;;;;13.13;6.05;;;;;;;12.17;62.55;98453.47;5071636;28;20025;-49
2022/05/03 05:17:57;;;;;;;10.80;6.40;;;;;;;12.22;62.21;98458.91;5071708;28;20029;-49
2022/05/03 05:20:24;;;;;;;8.85;5.90;;;;;;;12.31;62.01;98457.59;5070449;28;20021;-49
2022/05/03 05:22:50;;;;;;;12.50;7.15;;;;;;;12.39;61.73;98459.13;5071713;28;20024;-49
2022/05/03 05:25:16;;;;;;;10.45;6.07;;;;;;;12.39;61.95;98462.59;5071753;28;20021;-49
2022/05/03 05:27:42;;;;;;;13.07;6.32;;;;;;;12.40;61.91;98471.28;5070375;28;20120;-49
2022/05/03 05:30:08;;;;;;;16.70;6.90;;;;;;;12.36;61.99;98470.91;5070090;28;20083;-48
2022/05/03 05:32:35;;;;;;;10.45;6.88;;;;;;;12.38;62.03;98460.97;5071712;28;20486;-49
2022/05/03 05:35:01;;;;;;;10.02;7.15;;;;;;;12.46;61.36;98472.25;5071561;28;20032;-49
2022/05/03 05:37:27;;;;;;;9.25;6.60;;;;;;;12.49;61.79;98471.81;5070317;28;20020;-49
2022/05/03 05:39:53;;;;;;;14.07;7.05;;;;;;;12.46;61.73;98470.41;5071576;28;20486;-49
2022/05/03 05:42:19;;;;;;;12.73;7.13;;;;;;;12.45;61.96;98475.88;5071576;28;20085;-49
2022/05/03 05:44:45;;;;;;;9.07;7.38;;;;;;;12.52;61.67;98476.66;5071538;28;20086;-50
2022/05/03 05:47:11;;;;;;;8.43;7.53;;;;;;;12.59;61.78;98475.53;5070199;28;20115;-50
2022/05/03 05:49:36;;;;;;;15.75;7.20;;;;;;;12.71;61.50;98477.44;5070193;28;20495;-49
2022/05/03 05:54:46;;;;;;;11.73;7.50;;;;;;;13.06;60.44;98475.03;5071445;28;20078;-49
2022/05/03 05:57:12;;;;;;;10.90;7.65;;;;;;;13.20;60.07;98475.69;5070088;28;20554;-49
2022/05/03 05:59:38;;;;;;;14.73;7.18;;;;;;;13.39;59.74;98474.63;5070108;28;20036;-50
2022/05/03 06:02:04;;;;;;;17.73;8.32;;;;;;;13.56;59.37;98480.09;5071337;28;20069;-50
2022/05/03 06:04:29;;;;;;;11.55;7.35;;;;;;;13.70;58.54;98477.25;5071333;28;20113;-50
2022/05/03 06:06:56;;;;;;;10.18;6.93;;;;;;;13.86;58.69;98476.59;5069997;28;20055;-49
2022/05/03 06:09:22;;;;;;;12.20;6.93;;;;;;;14.06;57.85;98480.75;5070034;28;20056;-50
2022/05/03 06:11:47;;;;;;;8.90;7.00;;;;;;;14.31;57.54;98481.34;5069919;28;20517;-48
2022/05/03 06:14:13;;;;;;;9.15;6.78;;;;;;;14.57;56.98;98487.25;5071263;28;20047;-50
2022/05/03 06:16:56;;;;;;;9.93;7.60;;;;;;;14.77;56.05;98481.59;5069941;28;20028;-50
2022/05/03 06:19:22;;;;;;;12.07;6.00;;;;;;;14.91;55.85;98492.69;5071278;28;20055;-49
2022/05/03 06:21:49;;;;;;;7.93;6.05;;;;;;;15.16;55.07;98487.13;5071159;28;20090;-50
2022/05/03 06:24:15;;;;;;;11.45;6.40;;;;;;;15.47;54.40;98491.13;5070168;28;20020;-50
2022/05/03 06:26:41;;;;;;;12.77;6.53;;;;;;;15.83;53.57;98485.69;5071090;28;20073;-50
2022/05/03 06:29:08;;;;;;;14.15;6.78;;;;;;;16.22;52.72;98491.91;5073591;28;20028;-50
2022/05/03 06:31:44;;;;;;;10.40;6.57;;;;;;;16.64;51.56;98490.63;5074570;28;20151;-49
2022/05/03 06:34:10;;;;;;;11.95;6.40;;;;;;;16.83;51.17;98481.38;5074745;28;20020;-50
2022/05/03 06:36:36;;;;;;;12.35;6.47;;;;;;;17.26;50.49;98481.59;5073225;28;20526;-51
2022/05/03 06:39:06;;;;;;;13.05;7.43;;;;;;;17.79;48.74;98485.31;5073343;28;20073;-50
2022/05/03 06:41:32;;;;;;;11.38;6.57;;;;;;;18.47;47.27;98487.44;5073255;28;20107;-50
2022/05/03 06:43:58;;;;;;;12.50;6.75;;;;;;;19.23;45.67;98481.69;5073269;28;20021;-50
2022/05/03 06:46:25;;;;;;;13.52;6.00;;;;;;;19.89;44.02;98488.22;5073175;28;20024;-51
2022/05/03 06:48:51;;;;;;;12.18;5.85;;;;;;;20.49;42.36;98485.78;5074793;28;20490;-50
2022/05/03 06:51:17;;;;;;;18.77;6.25;;;;;;;20.99;41.24;98477.91;5073169;28;20021;-51
2022/05/03 06:53:43;;;;;;;15.07;6.47;;;;;;;21.46;40.32;98484.63;5073141;28;20035;-49
2022/05/03 06:56:09;;;;;;;10.63;6.00;;;;;;;21.94;39.29;98488.28;5074529;28;20503;-50
2022/05/03 06:58:34;;;;;;;11.15;6.50;;;;;;;22.33;38.59;98489.31;5072983;28;20503;-51
2022/05/03 07:01:13;;;;;;;9.65;5.47;;;;;;;23.10;37.44;98480.47;5074248;28;20025;-49
2022/05/03 07:03:41;;;;;;;15.20;6.05;;;;;;;23.98;35.86;98480.81;5074252;28;20020;-49
2022/05/03 07:06:07;;;;;;;32.50;6.80;;;;;;;25.00;34.07;98478.16;5072841;28;20108;-50
2022/05/03 07:08:34;;;;;;;29.05;6.30;;;;;;;25.74;32.71;98479.78;5074107;28;20162;-50
2022/05/03 07:11:00;;;;;;;42.35;6.90;;;;;;;26.50;31.83;98479.78;5074048;28;20099;-51
2022/05/03 07:13:27;;;;;;;41.97;6.75;;;;;;;27.30;30.41;98485.09;5072798;28;20150;-51
2022/05/03 07:15:54;;;;;;;22.30;6.03;;;;;;;27.89;29.07;98479.25;5073896;28;20028;-51
2022/05/03 07:23:49;;;;;;;22.98;5.28;;;;;;;29.63;26.56;98482.22;5074215;28;20077;-52
2022/05/03 07:26:15;;;;;;;29.33;5.63;;;;;;;29.84;25.66;98477.63;5073707;28;20089;-51
2022/05/03 07:28:40;;;;;;;27.70;5.40;;;;;;;29.71;25.78;98481.38;5073717;28;20096;-51
2022/05/03 07:31:06;;;;;;;12.82;5.00;;;;;;;29.53;25.36;98485.34;5072191;28;20051;-51
2022/05/03 07:33:32;;;;;;;10.65;4.75;;;;;;;29.62;24.97;98486.84;5073622;28;20170;-51
2022/05/03 07:35:58;;;;;;;10.98;5.05;;;;;;;30.11;24.77;98480.84;5072223;28;20406;-51
2022/05/03 07:38:24;;;;;;;16.95;5.00;;;;;;;30.55;24.31;98477.66;5073565;28;20505;-51
2022/05/03 07:40:49;;;;;;;12.60;5.53;;;;;;;31.00;23.58;98487.59;5072082;28;20149;-51
2022/05/03 07:43:15;;;;;;;11.13;4.90;;;;;;;31.19;23.49;98481.56;5073440;28;20025;-51
2022/05/03 07:45:41;;;;;;;9.07;4.82;;;;;;;31.47;22.81;98483.56;5072037;28;20032;-51
2022/05/03 07:48:06;;;;;;;13.80;4.53;;;;;;;31.57;22.25;98486.59;5073635;28;20020;-51
2022/05/03 07:50:33;;;;;;;23.23;5.13;;;;;;;31.64;22.37;98481.34;5071985;28;20020;-51
2022/05/03 07:52:58;;;;;;;32.38;5.30;;;;;;;31.64;22.08;98481.34;5072018;28;20021;-51
2022/05/03 07:55:24;;;;;;;50.03;8.68;;;;;;;31.60;21.73;98483.19;5073065;28;20025;-51
2022/05/03 07:57:50;;;;;;;52.92;7.10;;;;;;;31.67;22.26;98490.72;5073142;28;20040;-51
2022/05/03 08:00:16;;;;;;;44.35;6.80;;;;;;;31.60;22.02;98485.91;5073135;28;20121;-51
2022/05/03 08:02:42;;;;;;;24.45;6.20;;;;;;;31.51;22.10;98487.16;5072160;28;20050;-50
2022/05/03 08:05:10;;;;;;;17.60;5.35;;;;;;;31.50;22.01;98496.44;5073097;28;20542;-51
2022/05/03 08:07:36;;;;;;;23.55;6.22;;;;;;;31.54;22.16;98489.22;5073257;28;20398;-50
2022/05/03 08:10:03;;;;;;;19.15;5.10;;;;;;;31.69;22.08;98491.16;5072911;28;20033;-51
2022/05/03 08:12:29;;;;;;;11.80;4.50;;;;;;;31.83;21.68;98488.06;5072734;28;20031;-51
2022/05/03 08:14:56;;;;;;;30.65;5.78;;;;;;;32.00;21.68;98490.50;5072982;28;20107;-51
2022/05/03 08:17:25;;;;;;;25.83;5.30;;;;;;;32.10;21.36;98491.13;5071791;28;20028;-51
2022/05/03 08:19:51;;;;;;;38.25;6.35;;;;;;;32.14;21.32;98492.78;5072693;28;20021;-51
2022/05/03 08:22:16;;;;;;;15.55;4.75;;;;;;;32.13;21.62;98496.63;5072607;28;20078;-51
2022/05/03 08:24:42;;;;;;;20.20;4.80;;;;;;;31.94;21.71;98497.28;5071279;28;20482;-50
2022/05/03 08:27:08;;;;;;;14.80;4.47;;;;;;;31.75;21.52;98497.91;5072614;28;20074;-52
2022/05/03 08:29:34;;;;;;;16.42;5.60;;;;;;;31.45;22.03;98497.47;5054428;28;20039;-51
2022/05/03 08:32:01;;;;;;;13.82;5.55;;;;;;;31.31;22.49;98497.84;5071238;28;20395;-51
2022/05/03 08:34:28;;;;;;;19.15;5.40;;;;;;;31.24;22.49;98497.63;5072320;28;20082;-50
2022/05/03 08:42:24;;;;;;;19.90;5.28;;;;;;;31.36;22.45;98499.50;5072643;28;20035;-51
2022/05/03 08:44:50;;;;;;;15.05;5.20;;;;;;;31.29;22.26;98496.56;5072288;28;20056;-49
2022/05/03 08:47:20;;;;;;;11.05;5.32;;;;;;;31.35;22.25;98503.34;5072173;28;20056;-51
2022/05/03 08:50:11;;;;;;;11.20;4.85;;;;;;;31.21;22.35;98499.09;5072165;28;20031;-51
2022/05/03 08:53:04;;;;;;;14.00;5.05;;;;;;;31.09;22.70;98501.03;5071859;28;20020;-50
2022/05/03 08:55:30;;;;;;;11.85;4.93;;;;;;;31.12;22.44;98500.34;5086472;28;20037;-50
2022/05/03 08:57:56;;;;;;;19.15;5.70;;;;;;;31.28;22.09;98497.72;5070794;28;20033;-51
2022/05/03 09:00:23;;;;;;;24.65;6.13;;;;;;;31.36;22.43;98499.50;5071963;28;20032;-51
2022/05/03 09:02:54;;;;;;;16.60;5.50;;;;;;;31.90;21.86;98506.47;5072012;28;20012;-50
2022/05/03 09:05:20;;;;;;;16.50;5.30;;;;;;;32.57;21.43;98501.25;5070671;28;20478;-51
2022/05/03 09:07:50;;;;;;;12.43;5.35;;;;;;;33.16;20.21;98505.75;5070671;28;20024;-51
2022/05/03 09:10:18;;;;;;;14.77;5.63;;;;;;;33.77;19.61;98498.84;5071896;28;20036;-51
2022/05/03 09:12:44;;;;;;;8.38;4.85;;;;;;;34.01;19.21;98500.47;5072143;28;20392;-51
2022/05/03 09:15:14;;;;;;;14.30;5.25;;;;;;;34.60;19.19;98494.88;5071755;28;20016;-51
2022/05/03 09:17:45;;;;;;;15.77;5.25;;;;;;;35.16;18.99;98486.00;5071878;28;20494;-51
2022/05/03 09:26:12;;;;;;;25.98;6.50;;;;;;;34.79;19.11;98489.34;5071750;28;20031;-52
2022/05/03 09:28:45;;;;;;;15.20;6.07;;;;;;;34.01;19.59;98494.25;5070486;28;20033;-51
2022/05/03 09:31:11;;;;;;;16.15;5.80;;;;;;;33.33;19.98;98495.59;5071420;28;20547;-51
2022/05/03 09:33:37;;;;;;;15.20;6.53;;;;;;;32.68;20.66;98504.22;5070357;28;20044;-51
2022/05/03 09:36:11;;;;;;;19.48;6.40;;;;;;;31.88;21.74;98504.09;5070268;28;20035;-50
2022/05/03 09:38:48;;;;;;;14.60;6.53;;;;;;;31.42;22.19;98503.56;5070346;28;20063;-51
2022/05/03 09:41:15;;;;;;;11.55;5.57;;;;;;;31.04;22.72;98499.34;5070358;28;20064;-52
2022/05/03 09:44:02;;;;;;;17.65;6.03;;;;;;;30.75;22.89;98503.84;5071503;28;20494;-50
2022/05/03 09:46:29;;;;;;;12.63;5.40;;;;;;;30.61;23.24;98496.06;5070151;28;20059;-50
2022/05/03 09:48:55;;;;;;;17.88;6.32;;;;;;;31.02;23.04;98502.38;5071510;28;20090;-51
2022/05/03 09:51:22;;;;;;;16.80;5.70;;;;;;;31.38;22.59;98492.59;5071450;28;20484;-51
2022/05/03 09:53:58;;;;;;;27.15;5.90;;;;;;;31.04;22.80;98496.63;5070152;28;20021;-50
2022/05/03 09:56:27;;;;;;;14.63;6.15;;;;;;;31.14;22.95;98487.25;5070025;28;20033;-51
2022/05/03 09:58:59;;;;;;;15.75;5.15;;;;;;;32.39;21.63;98487.19;5070076;28;20017;-51
2022/05/03 10:01:26;;;;;;;9.55;4.90;;;;;;;33.37;20.67;98480.94;5070071;28;20074;-51
2022/05/03 10:03:52;;;;;;;11.02;5.35;;;;;;;33.87;20.27;98472.16;5073573;28;20017;-51
2022/05/03 10:06:20;;;;;;;18.98;5.22;;;;;;;34.15;19.98;98470.00;5075287;28;20028;-51
2022/05/03 10:08:49;;;;;;;21.08;5.72;;;;;;;34.22;19.95;98475.56;5073967;28;20028;-52
2022/05/03 10:11:18;;;;;;;6.50;4.47;;;;;;;34.59;19.74;98474.19;5075177;28;20056;-51
2022/05/03 10:13:45;;;;;;;15.77;5.35;;;;;;;34.91;19.11;98466.50;5075150;28;20035;-51
2022/05/03 10:21:56;;;;;;;16.83;5.47;;;;;;;35.06;18.99;98469.47;5074312;28;20575;-52
2022/05/03 10:24:23;;;;;;;14.82;4.75;;;;;;;35.03;18.97;98470.97;5074976;28;20024;-51
2022/05/03 10:26:52;;;;;;;10.85;4.45;;;;;;;34.33;19.52;98464.84;5074868;28;20021;-51
2022/05/03 10:29:21;;;;;;;12.88;4.72;;;;;;;33.86;20.09;98463.22;5075056;28;20430;-51
2022/05/03 10:32:06;;;;;;;9.98;4.65;;;;;;;33.65;19.92;98466.34;5074633;28;20044;-50
2022/05/03 10:34:59;;;;;;;11.38;4.65;;;;;;;33.36;20.48;98465.75;5073411;28;20085;-52
2022/05/03 10:37:33;;;;;;;10.75;4.45;;;;;;;33.26;19.80;98462.81;5075002;28;20024;-52
2022/05/03 10:40:09;;;;;;;;;;;;;;;33.43;20.67;98463.16;5075074;28;20033;-51
2022/05/03 10:42:35;;;;;;;6.78;4.32;;;;;;;33.58;20.31;98452.56;5074656;28;19908;-51
2022/05/03 10:45:14;;;;;;;13.48;4.85;;;;;;;33.92;19.60;98458.28;5073291;28;20031;-50
2022/05/03 10:47:59;;;;;;;9.43;4.78;;;;;;;34.59;19.02;98449.66;5074529;28;20024;-51
2022/05/03 10:50:31;;;;;;;11.85;4.85;;;;;;;35.19;18.45;98449.81;5074759;28;20036;-52
2022/05/03 10:53:00;;;;;;;9.80;4.80;;;;;;;35.63;18.16;98444.81;5073099;28;20553;-52
2022/05/03 10:55:40;;;;;;;11.93;5.22;;;;;;;35.93;18.28;98442.81;5074249;28;20031;-51
2022/05/03 10:58:31;;;;;;;8.00;4.72;;;;;;;36.12;17.73;98449.22;5074253;28;20036;-52
2022/05/03 11:01:08;;;;;;;14.48;5.32;;;;;;;35.94;18.06;98441.66;5074339;28;20107;-52
2022/05/03 11:03:39;;;;;;;55.30;7.82;;;;;;;36.32;17.66;98434.22;5073016;28;20029;-52
2022/05/03 11:06:23;;;;;;;15.00;4.60;;;;;;;36.27;17.69;98437.28;5074172;28;20501;-52
2022/05/03 11:11:44;;;;;;;17.58;4.07;;;;;;;36.54;16.79;98426.94;5074155;28;20387;-51
2022/05/03 11:14:17;;;;;;;13.20;4.72;;;;;;;36.70;16.61;98426.66;5073669;28;20442;-52
2022/05/03 11:16:44;;;;;;;13.25;4.88;;;;;;;36.97;16.54;98419.00;5073932;28;20056;-52
2022/05/03 11:19:11;;;;;;;7.55;4.40;;;;;;;37.03;16.44;98422.16;5073900;28;20025;-51
2022/05/03 11:21:38;;;;;;;10.43;4.25;;;;;;;37.09;15.97;98423.34;5056135;28;20105;-52
2022/05/03 11:24:05;;;;;;;9.43;4.30;;;;;;;36.94;15.81;98419.75;5073893;28;20033;-51
2022/05/03 11:26:31;;;;;;;7.82;3.83;;;;;;;36.97;16.10;98412.75;5072483;28;20074;-51
2022/05/03 11:28:59;;;;;;;8.75;3.97;;;;;;;36.43;16.13;98411.63;5074020;28;20032;-51
2022/05/03 11:31:28;;;;;;;8.65;3.92;;;;;;;35.57;16.52;98411.63;5073413;28;20048;-50
2022/05/03 11:33:58;;;;;;;10.48;3.90;;;;;;;35.20;16.78;98413.16;5072367;28;20107;-50
2022/05/03 11:36:26;;;;;;;7.43;3.40;;;;;;;35.09;16.98;98408.69;5073473;28;20031;-51
2022/05/03 11:38:54;;;;;;;8.52;3.50;;;;;;;34.94;17.76;98410.47;5072542;28;20036;-50
2022/05/03 11:41:25;;;;;;;12.50;4.32;;;;;;;34.88;17.95;98403.78;5073442;28;20071;-51
2022/05/03 11:43:51;;;;;;;9.20;4.28;;;;;;;34.76;18.03;98400.09;5073526;28;20021;-52
2022/05/03 11:46:18;;;;;;;11.45;4.15;;;;;;;34.73;18.54;98398.13;5073418;28;20082;-51
2022/05/03 11:48:50;;;;;;;7.45;4.03;;;;;;;34.55;18.22;98394.31;5073410;28;20104;-50
2022/05/03 11:57:10;;;;;;;8.38;4.10;;;;;;;33.39;19.47;98386.13;5073468;28;20055;-50
2022/05/03 11:59:38;;;;;;;8.88;4.78;;;;;;;33.33;19.56;98390.28;5073394;28;20432;-50
2022/05/03 12:02:36;;;;;;;7.32;4.57;;;;;;;33.48;20.03;98380.47;5073066;28;20056;-50
2022/05/03 12:05:06;;;;;;;5.45;4.13;;;;;;;33.63;19.17;98376.88;5071769;28;20151;-50
2022/05/03 12:07:41;;;;;;;9.38;4.70;;;;;;;33.66;19.94;98367.22;5073269;28;20408;-51
2022/05/03 12:10:27;;;;;;;70.88;9.40;;;;;;;33.91;19.98;98375.03;5072965;28;20052;-50
2022/05/03 12:13:07;;;;;;;9.82;4.28;;;;;;;34.09;19.93;98373.38;5071597;28;20115;-50
2022/05/03 12:15:35;;;;;;;16.70;3.65;;;;;;;34.24;18.98;98368.97;5071413;28;20032;-51
2022/05/03 12:18:15;;;;;;;11.05;4.40;;;;;;;34.37;18.55;98362.16;5072759;28;20436;-51
2022/05/03 12:20:44;;;;;;;12.25;3.60;;;;;;;34.28;18.02;98358.91;5072754;28;20029;-51
2022/05/03 12:23:17;;;;;;;9.40;4.15;;;;;;;34.01;18.67;98367.03;5072597;28;20039;-51
2022/05/03 12:25:45;;;;;;;5.95;4.20;;;;;;;33.86;19.05;98362.50;5071834;28;20500;-50
2022/05/03 12:28:11;;;;;;;6.82;4.20;;;;;;;33.67;18.77;98363.34;5071341;28;20127;-51
2022/05/03 12:30:37;;;;;;;6.13;3.80;;;;;;;33.60;19.02;98360.47;5072255;28;20520;-50